createdAt,value
2022-09-21T00:00:00.193Z,1030.21
2022-09-21T00:10:01.484Z,1030.28
2022-09-21T00:20:00.157Z,1030.53
2022-09-21T00:30:00.173Z,1030.57
2022-09-21T00:40:00.396Z,1030.41
2022-09-21T00:50:00.166Z,1030.53
2022-09-21T01:00:00.201Z,1030.60
2022-09-21T01:10:00.177Z,1030.60
2022-09-21T01:20:00.185Z,1030.67
2022-09-21T01:30:00.223Z,1030.65
2022-09-21T01:40:00.265Z,1030.62
2022-09-21T01:50:00.147Z,1030.62
2022-09-21T02:00:00.179Z,1030.68
2022-09-21T02:10:00.144Z,1030.67
2022-09-21T02:20:00.160Z,1030.64
2022-09-21T02:30:00.138Z,1030.53
2022-09-21T02:40:01.664Z,1030.51
2022-09-21T02:50:00.152Z,1030.58
2022-09-21T03:10:00.135Z,1030.98
2022-09-21T03:20:00.172Z,1030.97
2022-09-21T03:30:02.258Z,1030.99
2022-09-21T03:40:00.279Z,1030.99
2022-09-21T03:50:00.160Z,1030.98
2022-09-21T04:00:00.169Z,1030.96
2022-09-21T04:10:00.126Z,1031.04
2022-09-21T04:20:00.139Z,1031.09
2022-09-21T04:30:00.155Z,1031.05
2022-09-21T04:40:00.234Z,1031.03
2022-09-21T04:50:00.135Z,1031.04
2022-09-21T05:00:01.278Z,1031.13
2022-09-21T05:10:00.298Z,1031.22
2022-09-21T05:20:00.173Z,1031.35
2022-09-21T05:30:00.155Z,1031.48
2022-09-21T05:40:00.237Z,1031.68
2022-09-21T05:50:00.153Z,1031.59
2022-09-21T06:10:00.193Z,1031.71
2022-09-21T06:20:00.162Z,1031.68
2022-09-21T06:30:00.150Z,1031.76
2022-09-21T06:40:00.216Z,1031.85
2022-09-21T06:50:00.165Z,1031.90
2022-09-21T07:00:00.155Z,1031.90
2022-09-21T07:10:07.315Z,1031.96
2022-09-21T07:20:00.181Z,1032.01
2022-09-21T07:30:00.149Z,1031.99
2022-09-21T07:40:00.225Z,1031.94
2022-09-21T07:50:01.342Z,1031.86
2022-09-21T08:00:00.169Z,1031.91
2022-09-21T08:10:00.365Z,1031.85
2022-09-21T08:20:00.997Z,1031.88
2022-09-21T08:30:00.139Z,1031.83
2022-09-21T08:40:00.317Z,1031.87
2022-09-21T08:50:00.198Z,1031.88
2022-09-21T09:00:00.163Z,1031.87
2022-09-21T09:10:01.012Z,1031.86
2022-09-21T09:20:00.145Z,1031.89
2022-09-21T09:30:03.115Z,1031.88
2022-09-21T09:40:00.298Z,1031.92
2022-09-21T09:50:00.146Z,1031.93
2022-09-21T10:00:00.169Z,1031.91
2022-09-21T10:10:00.165Z,1031.86
2022-09-21T10:20:00.159Z,1031.84
2022-09-21T10:30:00.162Z,1031.82
2022-09-21T10:40:00.264Z,1031.66
2022-09-21T10:50:00.149Z,1031.60
2022-09-21T11:00:00.150Z,1031.51
2022-09-21T11:10:00.278Z,1031.35
2022-09-21T11:20:01.396Z,1031.32
2022-09-21T11:30:00.176Z,1031.36
2022-09-21T11:40:00.307Z,1031.40
2022-09-21T11:50:19.386Z,1031.37
2022-09-21T12:00:00.194Z,1031.25
2022-09-21T12:10:05.222Z,1031.21
2022-09-21T12:20:00.156Z,1031.14
2022-09-21T12:30:00.165Z,1031.11
2022-09-21T12:40:00.227Z,1031.00
2022-09-21T12:50:00.195Z,1031.04
2022-09-21T13:00:00.219Z,1030.98
2022-09-21T13:10:00.192Z,1030.90
2022-09-21T13:20:00.193Z,1030.90
2022-09-21T13:30:00.140Z,1030.86
2022-09-21T13:40:00.268Z,1030.77
2022-09-21T13:50:00.883Z,1030.79
2022-09-21T14:00:00.174Z,1030.80
2022-09-21T14:10:00.143Z,1030.71
2022-09-21T14:20:00.169Z,1030.68
2022-09-21T14:30:00.298Z,1030.52
2022-09-21T14:40:00.291Z,1030.43
2022-09-21T14:50:04.134Z,1030.34
2022-09-21T15:00:00.154Z,1030.36
2022-09-21T15:10:00.241Z,1030.41
2022-09-21T15:20:00.178Z,1030.28
2022-09-21T15:30:00.160Z,1030.18
2022-09-21T15:40:00.242Z,1030.16
2022-09-21T15:50:00.188Z,1030.22
2022-09-21T16:00:00.156Z,1030.26
2022-09-21T16:10:00.170Z,1030.32
2022-09-21T16:20:00.177Z,1030.37
2022-09-21T16:30:00.157Z,1030.39
2022-09-21T16:40:00.305Z,1030.43
2022-09-21T16:50:00.165Z,1030.44
2022-09-21T17:00:00.182Z,1030.40
2022-09-21T17:10:00.152Z,1030.52
2022-09-21T17:20:00.204Z,1030.59
2022-09-21T17:30:00.166Z,1030.63
2022-09-21T17:40:00.312Z,1030.64
2022-09-21T17:50:00.186Z,1030.65
2022-09-21T18:00:00.176Z,1030.70
2022-09-21T18:10:00.155Z,1030.79
2022-09-21T18:20:00.169Z,1030.86
2022-09-21T18:30:00.158Z,1030.95
2022-09-21T18:40:00.296Z,1030.94
2022-09-21T18:50:00.142Z,1031.00
2022-09-21T19:00:00.184Z,1031.00
2022-09-21T19:10:00.217Z,1031.04
2022-09-21T19:20:00.186Z,1031.02
2022-09-21T19:30:00.278Z,1031.02
2022-09-21T19:40:00.317Z,1031.04
2022-09-21T19:50:00.166Z,1031.05
2022-09-21T20:00:00.183Z,1031.15
2022-09-21T20:10:01.304Z,1031.17
2022-09-21T20:20:00.190Z,1031.14
2022-09-21T20:30:00.129Z,1031.12
2022-09-21T20:40:00.304Z,1031.16
2022-09-21T20:50:00.148Z,1031.22
2022-09-21T21:00:00.230Z,1031.22
2022-09-21T21:10:00.177Z,1031.24
2022-09-21T21:20:00.176Z,1031.23
2022-09-21T21:30:00.145Z,1031.25
2022-09-21T21:40:00.347Z,1031.26
2022-09-21T21:50:00.159Z,1031.22
2022-09-21T22:00:01.451Z,1031.19
2022-09-21T22:10:00.163Z,1031.16
2022-09-21T22:20:00.168Z,1031.06
2022-09-21T22:30:00.162Z,1031.12
2022-09-21T22:40:04.177Z,1031.05
2022-09-21T22:50:00.158Z,1031.12
2022-09-21T23:00:00.181Z,1031.27
2022-09-21T23:10:00.139Z,1031.27
2022-09-21T23:20:00.170Z,1031.26
2022-09-21T23:30:00.153Z,1031.22
2022-09-21T23:40:00.343Z,1031.19
2022-09-21T23:50:00.169Z,1031.20
